sensor_id;sensor_type;location;lat;lon;timestamp;pressure;altitude;pressure_sealevel;temperature;humidity
73103;BME280;61294;65.988;29.172;2023-02-02T00:00:58;96551.56;;;-7.91;100.00
73103;BME280;61294;65.988;29.172;2023-02-02T00:03:24;96522.84;;;-8.10;100.00
73103;BME280;61294;65.988;29.172;2023-02-02T00:05:52;96517.00;;;-8.06;100.00
73103;BME280;61294;65.988;29.172;2023-02-02T00:08:19;96526.53;;;-8.02;100.00
73103;BME280;61294;65.988;29.172;2023-02-02T00:10:46;96535.03;;;-8.01;100.00
73103;BME280;61294;65.988;29.172;2023-02-02T00:13:12;96533.31;;;-8.02;100.00
73103;BME280;61294;65.988;29.172;2023-02-02T00:15:38;96516.03;;;-8.09;100.00
73103;BME280;61294;65.988;29.172;2023-02-02T00:18:05;96497.63;;;-8.26;100.00
73103;BME280;61294;65.988;29.172;2023-02-02T00:20:31;96550.31;;;-8.03;100.00
73103;BME280;61294;65.988;29.172;2023-02-02T00:23:00;96542.72;;;-8.01;100.00
73103;BME280;61294;65.988;29.172;2023-02-02T00:25:26;96533.66;;;-8.17;100.00
73103;BME280;61294;65.988;29.172;2023-02-02T00:27:52;96541.47;;;-8.12;100.00
73103;BME280;61294;65.988;29.172;2023-02-02T00:30:18;96547.47;;;-8.12;100.00
73103;BME280;61294;65.988;29.172;2023-02-02T00:32:44;96551.88;;;-8.08;100.00
73103;BME280;61294;65.988;29.172;2023-02-02T00:35:13;96566.25;;;-8.10;100.00
73103;BME280;61294;65.988;29.172;2023-02-02T00:37:40;96568.13;;;-8.06;100.00
73103;BME280;61294;65.988;29.172;2023-02-02T00:40:06;96534.53;;;-8.17;100.00
73103;BME280;61294;65.988;29.172;2023-02-02T00:42:32;96555.25;;;-8.09;100.00
73103;BME280;61294;65.988;29.172;2023-02-02T00:44:58;96568.22;;;-8.03;100.00
73103;BME280;61294;65.988;29.172;2023-02-02T00:47:47;96570.00;;;-8.00;100.00
73103;BME280;61294;65.988;29.172;2023-02-02T00:50:18;96563.06;;;-8.04;100.00
73103;BME280;61294;65.988;29.172;2023-02-02T00:52:46;96572.66;;;-7.97;100.00
73103;BME280;61294;65.988;29.172;2023-02-02T00:55:13;96571.72;;;-8.01;100.00
73103;BME280;61294;65.988;29.172;2023-02-02T00:57:39;96577.72;;;-7.99;100.00
73103;BME280;61294;65.988;29.172;2023-02-02T01:00:07;96588.00;;;-7.97;100.00
73103;BME280;61294;65.988;29.172;2023-02-02T01:02:34;96582.06;;;-7.96;100.00
73103;BME280;61294;65.988;29.172;2023-02-02T01:05:00;96585.59;;;-7.92;100.00
73103;BME280;61294;65.988;29.172;2023-02-02T01:07:26;96555.13;;;-8.12;100.00
73103;BME280;61294;65.988;29.172;2023-02-02T01:09:52;96594.69;;;-8.01;100.00
73103;BME280;61294;65.988;29.172;2023-02-02T01:12:18;96575.47;;;-8.15;100.00
73103;BME280;61294;65.988;29.172;2023-02-02T01:14:44;96603.19;;;-8.02;100.00
73103;BME280;61294;65.988;29.172;2023-02-02T01:17:09;96606.50;;;-8.04;100.00
73103;BME280;61294;65.988;29.172;2023-02-02T01:19:35;96598.81;;;-8.04;100.00
73103;BME280;61294;65.988;29.172;2023-02-02T01:22:01;96594.56;;;-8.04;100.00
73103;BME280;61294;65.988;29.172;2023-02-02T01:24:27;96598.81;;;-8.04;100.00
73103;BME280;61294;65.988;29.172;2023-02-02T01:26:53;96602.13;;;-8.07;100.00
73103;BME280;61294;65.988;29.172;2023-02-02T01:29:18;96608.25;;;-8.03;100.00
73103;BME280;61294;65.988;29.172;2023-02-02T01:31:44;96615.91;;;-8.03;100.00
73103;BME280;61294;65.988;29.172;2023-02-02T01:34:10;96609.03;;;-8.04;100.00
73103;BME280;61294;65.988;29.172;2023-02-02T01:36:36;96595.22;;;-8.09;100.00
73103;BME280;61294;65.988;29.172;2023-02-02T01:39:02;96621.22;;;-7.97;100.00
73103;BME280;61294;65.988;29.172;2023-02-02T01:41:27;96585.56;;;-8.18;100.00
73103;BME280;61294;65.988;29.172;2023-02-02T01:43:55;96606.63;;;-8.00;100.00
73103;BME280;61294;65.988;29.172;2023-02-02T01:46:23;96628.03;;;-7.98;100.00
73103;BME280;61294;65.988;29.172;2023-02-02T01:49:02;96625.47;;;-7.98;100.00
73103;BME280;61294;65.988;29.172;2023-02-02T01:51:50;96629.91;;;-7.92;100.00
73103;BME280;61294;65.988;29.172;2023-02-02T01:54:33;96634.16;;;-7.92;100.00
73103;BME280;61294;65.988;29.172;2023-02-02T01:57:03;96633.19;;;-7.96;100.00
73103;BME280;61294;65.988;29.172;2023-02-02T01:59:31;96645.25;;;-7.92;100.00
73103;BME280;61294;65.988;29.172;2023-02-02T02:01:58;96615.81;;;-8.06;100.00
73103;BME280;61294;65.988;29.172;2023-02-02T02:04:25;96643.66;;;-7.88;100.00
73103;BME280;61294;65.988;29.172;2023-02-02T02:06:52;96649.59;;;-7.89;100.00
73103;BME280;61294;65.988;29.172;2023-02-02T02:09:18;96656.38;;;-7.90;100.00
73103;BME280;61294;65.988;29.172;2023-02-02T02:11:43;96653.06;;;-7.87;100.00
73103;BME280;61294;65.988;29.172;2023-02-02T02:14:10;96636.59;;;-7.95;100.00
73103;BME280;61294;65.988;29.172;2023-02-02T02:17:20;96641.94;;;-7.89;100.00
73103;BME280;61294;65.988;29.172;2023-02-02T02:34:46;96656.28;;;-7.93;100.00
73103;BME280;61294;65.988;29.172;2023-02-02T02:40:31;96683.13;;;-7.80;100.00
73103;BME280;61294;65.988;29.172;2023-02-02T02:43:26;96690.75;;;-7.82;100.00
73103;BME280;61294;65.988;29.172;2023-02-02T02:45:49;96695.88;;;-7.82;100.00
73103;BME280;61294;65.988;29.172;2023-02-02T02:48:15;96696.88;;;-7.78;100.00
73103;BME280;61294;65.988;29.172;2023-02-02T02:50:41;96697.78;;;-7.76;100.00
73103;BME280;61294;65.988;29.172;2023-02-02T02:53:12;96703.63;;;-7.78;100.00
73103;BME280;61294;65.988;29.172;2023-02-02T02:56:01;96709.56;;;-7.80;100.00
73103;BME280;61294;65.988;29.172;2023-02-02T02:58:58;96711.38;;;-7.77;100.00
73103;BME280;61294;65.988;29.172;2023-02-02T03:01:33;96698.31;;;-7.85;100.00
73103;BME280;61294;65.988;29.172;2023-02-02T03:04:18;96677.72;;;-7.89;100.00
73103;BME280;61294;65.988;29.172;2023-02-02T03:06:57;96707.94;;;-7.77;100.00
73103;BME280;61294;65.988;29.172;2023-02-02T03:09:27;96686.03;;;-7.95;100.00
73103;BME280;61294;65.988;29.172;2023-02-02T03:11:55;96719.09;;;-7.75;100.00
73103;BME280;61294;65.988;29.172;2023-02-02T03:14:21;96714.03;;;-7.74;100.00
73103;BME280;61294;65.988;29.172;2023-02-02T03:16:50;96725.13;;;-7.73;100.00
73103;BME280;61294;65.988;29.172;2023-02-02T03:19:15;96724.34;;;-7.72;100.00
73103;BME280;61294;65.988;29.172;2023-02-02T03:21:41;96731.91;;;-7.74;100.00
73103;BME280;61294;65.988;29.172;2023-02-02T03:24:07;96726.88;;;-7.72;100.00
73103;BME280;61294;65.988;29.172;2023-02-02T03:26:33;96703.28;;;-7.89;100.00
73103;BME280;61294;65.988;29.172;2023-02-02T03:28:59;96738.69;;;-7.76;100.00
73103;BME280;61294;65.988;29.172;2023-02-02T03:31:26;96748.03;;;-7.76;100.00
73103;BME280;61294;65.988;29.172;2023-02-02T03:33:54;96737.69;;;-7.80;100.00
73103;BME280;61294;65.988;29.172;2023-02-02T03:36:19;96748.25;;;-7.70;100.00
73103;BME280;61294;65.988;29.172;2023-02-02T03:38:45;96758.59;;;-7.67;100.00
73103;BME280;61294;65.988;29.172;2023-02-02T03:41:11;96722.25;;;-7.83;100.00
73103;BME280;61294;65.988;29.172;2023-02-02T03:43:37;96760.16;;;-7.71;100.00
73103;BME280;61294;65.988;29.172;2023-02-02T03:46:04;96757.63;;;-7.71;100.00
73103;BME280;61294;65.988;29.172;2023-02-02T03:48:30;96714.91;;;-7.98;100.00
73103;BME280;61294;65.988;29.172;2023-02-02T03:50:56;96774.72;;;-7.68;100.00
73103;BME280;61294;65.988;29.172;2023-02-02T03:53:22;96778.22;;;-7.66;100.00
73103;BME280;61294;65.988;29.172;2023-02-02T03:55:48;96771.31;;;-7.69;100.00
73103;BME280;61294;65.988;29.172;2023-02-02T03:58:14;96775.81;;;-7.61;100.00
73103;BME280;61294;65.988;29.172;2023-02-02T04:00:40;96792.81;;;-7.64;100.00
73103;BME280;61294;65.988;29.172;2023-02-02T04:03:05;96794.53;;;-7.63;100.00
73103;BME280;61294;65.988;29.172;2023-02-02T04:05:31;96792.75;;;-7.65;100.00
73103;BME280;61294;65.988;29.172;2023-02-02T04:07:57;96799.50;;;-7.67;100.00
73103;BME280;61294;65.988;29.172;2023-02-02T04:10:23;96795.22;;;-7.67;100.00
73103;BME280;61294;65.988;29.172;2023-02-02T04:12:48;96797.88;;;-7.65;100.00
73103;BME280;61294;65.988;29.172;2023-02-02T04:15:15;96803.84;;;-7.65;100.00
73103;BME280;61294;65.988;29.172;2023-02-02T04:17:41;96801.25;;;-7.66;100.00
73103;BME280;61294;65.988;29.172;2023-02-02T04:20:07;96797.09;;;-7.63;100.00
73103;BME280;61294;65.988;29.172;2023-02-02T04:22:33;96789.47;;;-7.61;100.00
73103;BME280;61294;65.988;29.172;2023-02-02T04:24:59;96799.66;;;-7.63;100.00
73103;BME280;61294;65.988;29.172;2023-02-02T04:27:25;96769.28;;;-7.77;100.00
73103;BME280;61294;65.988;29.172;2023-02-02T04:29:50;96773.34;;;-7.83;100.00
73103;BME280;61294;65.988;29.172;2023-02-02T04:32:17;96808.16;;;-7.64;100.00
73103;BME280;61294;65.988;29.172;2023-02-02T04:34:43;96771.56;;;-7.85;100.00
73103;BME280;61294;65.988;29.172;2023-02-02T04:37:10;96792.75;;;-7.65;100.00
73103;BME280;61294;65.988;29.172;2023-02-02T04:39:36;96798.97;;;-7.81;100.00
73103;BME280;61294;65.988;29.172;2023-02-02T04:42:02;96826.91;;;-7.63;100.00
73103;BME280;61294;65.988;29.172;2023-02-02T04:44:27;96840.63;;;-7.61;100.00
73103;BME280;61294;65.988;29.172;2023-02-02T04:46:53;96814.63;;;-7.73;100.00
73103;BME280;61294;65.988;29.172;2023-02-02T04:49:19;96833.84;;;-7.60;100.00
73103;BME280;61294;65.988;29.172;2023-02-02T04:51:46;96785.88;;;-7.90;100.00
73103;BME280;61294;65.988;29.172;2023-02-02T04:54:12;96818.09;;;-7.71;100.00
73103;BME280;61294;65.988;29.172;2023-02-02T04:56:38;96846.88;;;-7.53;100.00
73103;BME280;61294;65.988;29.172;2023-02-02T04:59:04;96852.00;;;-7.53;100.00
73103;BME280;61294;65.988;29.172;2023-02-02T05:01:30;96842.31;;;-7.61;100.00
73103;BME280;61294;65.988;29.172;2023-02-02T05:03:56;96855.94;;;-7.61;100.00
73103;BME280;61294;65.988;29.172;2023-02-02T05:06:21;96849.00;;;-7.65;100.00
73103;BME280;61294;65.988;29.172;2023-02-02T05:08:47;96860.31;;;-7.58;100.00
73103;BME280;61294;65.988;29.172;2023-02-02T05:11:16;96864.69;;;-7.56;100.00
73103;BME280;61294;65.988;29.172;2023-02-02T05:13:50;96810.78;;;-7.85;100.00
73103;BME280;61294;65.988;29.172;2023-02-02T05:16:17;96871.50;;;-7.56;100.00
73103;BME280;61294;65.988;29.172;2023-02-02T05:18:48;96870.75;;;-7.54;100.00
73103;BME280;61294;65.988;29.172;2023-02-02T05:21:14;96844.66;;;-7.68;100.00
73103;BME280;61294;65.988;29.172;2023-02-02T05:23:39;96878.47;;;-7.52;100.00
73103;BME280;61294;65.988;29.172;2023-02-02T05:26:05;96889.38;;;-7.56;100.00
73103;BME280;61294;65.988;29.172;2023-02-02T05:28:31;96881.78;;;-7.55;100.00
73103;BME280;61294;65.988;29.172;2023-02-02T05:31:04;96896.31;;;-7.54;100.00
73103;BME280;61294;65.988;29.172;2023-02-02T05:33:31;96863.41;;;-7.67;100.00
73103;BME280;61294;65.988;29.172;2023-02-02T05:35:56;96905.75;;;-7.51;100.00
73103;BME280;61294;65.988;29.172;2023-02-02T05:38:22;96905.75;;;-7.51;100.00
73103;BME280;61294;65.988;29.172;2023-02-02T05:40:48;96898.66;;;-7.58;100.00
73103;BME280;61294;65.988;29.172;2023-02-02T05:43:14;96879.56;;;-7.68;100.00
73103;BME280;61294;65.988;29.172;2023-02-02T05:45:39;96899.72;;;-7.53;100.00
73103;BME280;61294;65.988;29.172;2023-02-02T05:48:06;96905.44;;;-7.60;100.00
73103;BME280;61294;65.988;29.172;2023-02-02T05:50:32;96888.69;;;-7.75;100.00
73103;BME280;61294;65.988;29.172;2023-02-02T05:52:58;96927.88;;;-7.53;100.00
73103;BME280;61294;65.988;29.172;2023-02-02T05:55:24;96892.63;;;-7.83;100.00
73103;BME280;61294;65.988;29.172;2023-02-02T05:57:49;96937.28;;;-7.52;100.00
73103;BME280;61294;65.988;29.172;2023-02-02T06:00:15;96934.78;;;-7.51;100.00
73103;BME280;61294;65.988;29.172;2023-02-02T06:02:41;96943.25;;;-7.52;100.00
73103;BME280;61294;65.988;29.172;2023-02-02T06:05:07;96933.50;;;-7.62;100.00
73103;BME280;61294;65.988;29.172;2023-02-02T06:07:33;96947.63;;;-7.49;100.00
73103;BME280;61294;65.988;29.172;2023-02-02T06:09:59;96936.91;;;-7.61;100.00
73103;BME280;61294;65.988;29.172;2023-02-02T06:12:24;96921.09;;;-7.74;100.00
73103;BME280;61294;65.988;29.172;2023-02-02T06:14:50;96961.97;;;-7.53;100.00
73103;BME280;61294;65.988;29.172;2023-02-02T06:17:16;96932.28;;;-7.72;100.00
73103;BME280;61294;65.988;29.172;2023-02-02T06:19:41;96963.78;;;-7.50;100.00
73103;BME280;61294;65.988;29.172;2023-02-02T06:22:07;96971.22;;;-7.56;100.00
73103;BME280;61294;65.988;29.172;2023-02-02T06:24:33;96973.78;;;-7.56;100.00
73103;BME280;61294;65.988;29.172;2023-02-02T06:26:59;96980.72;;;-7.54;100.00
73103;BME280;61294;65.988;29.172;2023-02-02T06:29:24;96974.81;;;-7.51;100.00
73103;BME280;61294;65.988;29.172;2023-02-02T06:31:50;96979.88;;;-7.53;100.00
73103;BME280;61294;65.988;29.172;2023-02-02T06:34:16;96986.75;;;-7.52;100.00
73103;BME280;61294;65.988;29.172;2023-02-02T06:36:42;96995.28;;;-7.51;100.00
73103;BME280;61294;65.988;29.172;2023-02-02T06:39:07;96995.16;;;-7.54;100.00
73103;BME280;61294;65.988;29.172;2023-02-02T06:41:34;97005.50;;;-7.51;100.00
73103;BME280;61294;65.988;29.172;2023-02-02T06:44:00;96994.31;;;-7.55;100.00
73103;BME280;61294;65.988;29.172;2023-02-02T06:46:26;97001.06;;;-7.55;100.00
73103;BME280;61294;65.988;29.172;2023-02-02T06:48:52;97014.94;;;-7.50;100.00
73103;BME280;61294;65.988;29.172;2023-02-02T06:51:18;97007.84;;;-7.57;100.00
73103;BME280;61294;65.988;29.172;2023-02-02T06:53:47;96969.88;;;-7.90;100.00
73103;BME280;61294;65.988;29.172;2023-02-02T06:56:15;96989.31;;;-7.73;100.00
73103;BME280;61294;65.988;29.172;2023-02-02T06:58:41;97037.72;;;-7.56;100.00
73103;BME280;61294;65.988;29.172;2023-02-02T07:01:10;97037.09;;;-7.51;100.00
73103;BME280;61294;65.988;29.172;2023-02-02T07:03:36;97039.53;;;-7.54;100.00
73103;BME280;61294;65.988;29.172;2023-02-02T07:06:14;97043.19;;;-7.47;100.00
73103;BME280;61294;65.988;29.172;2023-02-02T07:08:41;97047.38;;;-7.49;100.00
73103;BME280;61294;65.988;29.172;2023-02-02T07:11:06;97050.78;;;-7.49;100.00
73103;BME280;61294;65.988;29.172;2023-02-02T07:13:32;97040.34;;;-7.55;100.00
73103;BME280;61294;65.988;29.172;2023-02-02T07:15:58;97059.47;;;-7.45;100.00
73103;BME280;61294;65.988;29.172;2023-02-02T07:18:24;97061.19;;;-7.44;100.00
73103;BME280;61294;65.988;29.172;2023-02-02T07:20:50;97037.72;;;-7.56;100.00
73103;BME280;61294;65.988;29.172;2023-02-02T07:23:16;97068.31;;;-7.37;100.00
73103;BME280;61294;65.988;29.172;2023-02-02T07:25:41;97065.00;;;-7.34;100.00
73103;BME280;61294;65.988;29.172;2023-02-02T07:28:07;97044.13;;;-7.45;100.00
73103;BME280;61294;65.988;29.172;2023-02-02T07:30:33;97056.22;;;-7.41;100.00
73103;BME280;61294;65.988;29.172;2023-02-02T07:32:59;97076.25;;;-7.31;100.00
73103;BME280;61294;65.988;29.172;2023-02-02T07:35:26;97047.44;;;-7.48;100.00
73103;BME280;61294;65.988;29.172;2023-02-02T07:37:53;97074.53;;;-7.30;100.00
73103;BME280;61294;65.988;29.172;2023-02-02T07:40:19;97052.72;;;-7.43;100.00
73103;BME280;61294;65.988;29.172;2023-02-02T07:42:45;97056.28;;;-7.39;100.00
73103;BME280;61294;65.988;29.172;2023-02-02T07:45:12;97057.16;;;-7.39;100.00
73103;BME280;61294;65.988;29.172;2023-02-02T07:47:38;97062.38;;;-7.36;100.00
73103;BME280;61294;65.988;29.172;2023-02-02T07:50:03;97096.59;;;-7.34;100.00
73103;BME280;61294;65.988;29.172;2023-02-02T07:52:29;97070.00;;;-7.37;100.00
73103;BME280;61294;65.988;29.172;2023-02-02T07:54:55;97075.34;;;-7.31;100.00
73103;BME280;61294;65.988;29.172;2023-02-02T07:57:21;97096.47;;;-7.14;100.00
73103;BME280;61294;65.988;29.172;2023-02-02T07:59:47;97058.34;;;-7.52;100.00
73103;BME280;61294;65.988;29.172;2023-02-02T08:02:15;97113.31;;;-7.21;100.00
73103;BME280;61294;65.988;29.172;2023-02-02T08:04:41;97100.47;;;-7.22;100.00
73103;BME280;61294;65.988;29.172;2023-02-02T08:07:06;97101.75;;;-7.11;100.00
73103;BME280;61294;65.988;29.172;2023-02-02T08:09:32;97080.84;;;-7.22;100.00
73103;BME280;61294;65.988;29.172;2023-02-02T08:11:58;97132.00;;;-7.01;100.00
73103;BME280;61294;65.988;29.172;2023-02-02T08:14:26;97103.13;;;-7.19;100.00
73103;BME280;61294;65.988;29.172;2023-02-02T08:16:52;97143.06;;;-7.02;100.00
73103;BME280;61294;65.988;29.172;2023-02-02T08:19:18;97120.53;;;-7.11;100.00
73103;BME280;61294;65.988;29.172;2023-02-02T08:21:43;97109.16;;;-7.17;100.00
73103;BME280;61294;65.988;29.172;2023-02-02T08:24:09;97152.72;;;-6.95;100.00
73103;BME280;61294;65.988;29.172;2023-02-02T08:26:35;97114.47;;;-7.13;100.00
73103;BME280;61294;65.988;29.172;2023-02-02T08:29:06;97153.41;;;-6.99;100.00
73103;BME280;61294;65.988;29.172;2023-02-02T08:31:35;97157.91;;;-6.93;100.00
73103;BME280;61294;65.988;29.172;2023-02-02T08:34:02;97158.78;;;-6.92;100.00
73103;BME280;61294;65.988;29.172;2023-02-02T08:36:29;97167.56;;;-6.86;100.00
73103;BME280;61294;65.988;29.172;2023-02-02T08:38:59;97162.69;;;-6.80;100.00
73103;BME280;61294;65.988;29.172;2023-02-02T08:41:25;97165.31;;;-6.78;100.00
73103;BME280;61294;65.988;29.172;2023-02-02T08:43:51;97136.66;;;-6.90;100.00
73103;BME280;61294;65.988;29.172;2023-02-02T08:46:18;97179.09;;;-6.74;100.00
73103;BME280;61294;65.988;29.172;2023-02-02T08:48:45;97144.41;;;-6.89;100.00
73103;BME280;61294;65.988;29.172;2023-02-02T08:51:13;97173.16;;;-6.73;100.00
73103;BME280;61294;65.988;29.172;2023-02-02T08:53:40;97183.66;;;-6.67;100.00
73103;BME280;61294;65.988;29.172;2023-02-02T08:56:09;97189.56;;;-6.68;100.00
73103;BME280;61294;65.988;29.172;2023-02-02T08:58:36;97183.59;;;-6.69;100.00
73103;BME280;61294;65.988;29.172;2023-02-02T09:01:29;97166.19;;;-6.78;100.00
73103;BME280;61294;65.988;29.172;2023-02-02T09:04:01;97184.09;;;-6.78;100.00
73103;BME280;61294;65.988;29.172;2023-02-02T09:06:31;97201.28;;;-6.75;100.00
73103;BME280;61294;65.988;29.172;2023-02-02T09:08:57;97162.16;;;-6.94;100.00
73103;BME280;61294;65.988;29.172;2023-02-02T09:11:23;97189.22;;;-6.78;100.00
73103;BME280;61294;65.988;29.172;2023-02-02T09:13:57;97195.22;;;-6.77;100.00
73103;BME280;61294;65.988;29.172;2023-02-02T09:16:24;97154.59;;;-7.12;100.00
73103;BME280;61294;65.988;29.172;2023-02-02T09:18:50;97204.31;;;-6.85;100.00
73103;BME280;61294;65.988;29.172;2023-02-02T09:21:17;97212.66;;;-6.89;100.00
73103;BME280;61294;65.988;29.172;2023-02-02T09:23:44;97216.22;;;-6.86;100.00
73103;BME280;61294;65.988;29.172;2023-02-02T09:28:43;97219.78;;;-6.82;100.00
73103;BME280;61294;65.988;29.172;2023-02-02T09:31:09;97198.75;;;-6.96;100.00
73103;BME280;61294;65.988;29.172;2023-02-02T09:33:35;97218.03;;;-6.83;100.00
73103;BME280;61294;65.988;29.172;2023-02-02T09:36:09;97222.47;;;-6.79;100.00
73103;BME280;61294;65.988;29.172;2023-02-02T09:38:36;97203.81;;;-6.98;100.00
73103;BME280;61294;65.988;29.172;2023-02-02T09:47:23;97217.28;;;-6.81;100.00
73103;BME280;61294;65.988;29.172;2023-02-02T09:49:18;97221.81;;;-6.73;100.00
73103;BME280;61294;65.988;29.172;2023-02-02T09:51:52;97195.78;;;-6.84;100.00
73103;BME280;61294;65.988;29.172;2023-02-02T09:54:42;97211.72;;;-6.91;100.00
73103;BME280;61294;65.988;29.172;2023-02-02T09:57:24;97247.00;;;-6.63;100.00
73103;BME280;61294;65.988;29.172;2023-02-02T09:59:53;97242.56;;;-6.67;100.00
73103;BME280;61294;65.988;29.172;2023-02-02T10:02:24;97241.56;;;-6.71;100.00
73103;BME280;61294;65.988;29.172;2023-02-02T10:04:59;97258.72;;;-6.68;100.00
73103;BME280;61294;65.988;29.172;2023-02-02T10:07:53;97227.41;;;-6.84;100.00
73103;BME280;61294;65.988;29.172;2023-02-02T10:10:32;97245.78;;;-6.71;100.00
73103;BME280;61294;65.988;29.172;2023-02-02T10:13:10;97252.97;;;-6.63;100.00
73103;BME280;61294;65.988;29.172;2023-02-02T10:15:43;97239.69;;;-6.75;100.00
73103;BME280;61294;65.988;29.172;2023-02-02T10:18:13;97261.50;;;-6.64;100.00
73103;BME280;61294;65.988;29.172;2023-02-02T10:20:58;97278.09;;;-6.54;100.00
73103;BME280;61294;65.988;29.172;2023-02-02T10:23:28;97274.19;;;-6.44;100.00
73103;BME280;61294;65.988;29.172;2023-02-02T10:26:18;97282.66;;;-6.47;100.00
73103;BME280;61294;65.988;29.172;2023-02-02T10:34:44;97246.19;;;-6.62;100.00
73103;BME280;61294;65.988;29.172;2023-02-02T10:37:47;97304.63;;;-6.31;100.00
73103;BME280;61294;65.988;29.172;2023-02-02T10:46:16;97252.50;;;-6.75;100.00
73103;BME280;61294;65.988;29.172;2023-02-02T10:48:47;97310.91;;;-6.45;100.00
73103;BME280;61294;65.988;29.172;2023-02-02T10:51:22;97313.34;;;-6.48;100.00
73103;BME280;61294;65.988;29.172;2023-02-02T10:53:52;97320.97;;;-6.50;100.00
73103;BME280;61294;65.988;29.172;2023-02-02T10:56:34;97319.03;;;-6.55;100.00
73103;BME280;61294;65.988;29.172;2023-02-02T10:59:15;97329.53;;;-6.49;100.00
73103;BME280;61294;65.988;29.172;2023-02-02T11:01:42;97331.47;;;-6.44;100.00
73103;BME280;61294;65.988;29.172;2023-02-02T11:04:09;97299.22;;;-6.60;100.00
73103;BME280;61294;65.988;29.172;2023-02-02T11:06:54;97340.81;;;-6.44;100.00
73103;BME280;61294;65.988;29.172;2023-02-02T11:09:23;97336.69;;;-6.40;100.00
73103;BME280;61294;65.988;29.172;2023-02-02T11:11:58;97314.72;;;-6.56;100.00
73103;BME280;61294;65.988;29.172;2023-02-02T11:14:42;97347.69;;;-6.43;100.00
73103;BME280;61294;65.988;29.172;2023-02-02T11:17:20;97340.19;;;-6.38;100.00
73103;BME280;61294;65.988;29.172;2023-02-02T11:19:47;97309.16;;;-6.46;100.00
73103;BME280;61294;65.988;29.172;2023-02-02T11:22:30;97337.19;;;-6.28;100.00
73103;BME280;61294;65.988;29.172;2023-02-02T11:25:02;97357.25;;;-6.18;100.00
73103;BME280;61294;65.988;29.172;2023-02-02T11:27:32;97347.50;;;-6.27;100.00
73103;BME280;61294;65.988;29.172;2023-02-02T11:30:11;97330.03;;;-6.37;100.00
73103;BME280;61294;65.988;29.172;2023-02-02T11:32:45;97352.75;;;-6.23;100.00
73103;BME280;61294;65.988;29.172;2023-02-02T11:35:20;97355.19;;;-6.27;100.00
73103;BME280;61294;65.988;29.172;2023-02-02T11:38:16;97348.69;;;-6.18;100.00
73103;BME280;61294;65.988;29.172;2023-02-02T11:40:44;97359.88;;;-6.16;100.00
73103;BME280;61294;65.988;29.172;2023-02-02T11:43:17;97335.38;;;-6.31;100.00
73103;BME280;61294;65.988;29.172;2023-02-02T11:45:45;97361.06;;;-6.08;100.00
73103;BME280;61294;65.988;29.172;2023-02-02T11:48:22;97377.41;;;-6.04;100.00
73103;BME280;61294;65.988;29.172;2023-02-02T11:50:51;97371.06;;;-5.92;100.00
73103;BME280;61294;65.988;29.172;2023-02-02T11:53:40;97345.84;;;-6.03;100.00
73103;BME280;61294;65.988;29.172;2023-02-02T11:56:23;97351.50;;;-5.90;100.00
73103;BME280;61294;65.988;29.172;2023-02-02T11:58:52;97374.06;;;-5.81;100.00
73103;BME280;61294;65.988;29.172;2023-02-02T12:01:31;97367.97;;;-5.83;100.00
73103;BME280;61294;65.988;29.172;2023-02-02T12:04:00;97383.50;;;-6.02;100.00
73103;BME280;61294;65.988;29.172;2023-02-02T12:09:01;97355.09;;;-6.30;100.00
73103;BME280;61294;65.988;29.172;2023-02-02T12:14:37;97374.13;;;-6.23;100.00
73103;BME280;61294;65.988;29.172;2023-02-02T12:20:47;97400.66;;;-6.22;100.00
73103;BME280;61294;65.988;29.172;2023-02-02T12:25:50;97397.19;;;-6.44;100.00
73103;BME280;61294;65.988;29.172;2023-02-02T12:37:05;97409.44;;;-6.58;100.00
73103;BME280;61294;65.988;29.172;2023-02-02T12:50:30;97423.22;;;-6.54;100.00
73103;BME280;61294;65.988;29.172;2023-02-02T12:53:21;97424.19;;;-6.52;100.00
73103;BME280;61294;65.988;29.172;2023-02-02T12:58:43;97428.22;;;-6.57;100.00
73103;BME280;61294;65.988;29.172;2023-02-02T13:01:21;97420.00;;;-6.70;100.00
73103;BME280;61294;65.988;29.172;2023-02-02T13:07:26;97420.19;;;-6.67;100.00
73103;BME280;61294;65.988;29.172;2023-02-02T13:13:22;97418.91;;;-6.77;100.00
73103;BME280;61294;65.988;29.172;2023-02-02T13:15:54;97438.00;;;-6.68;100.00
73103;BME280;61294;65.988;29.172;2023-02-02T13:18:36;97406.16;;;-6.95;100.00
73103;BME280;61294;65.988;29.172;2023-02-02T13:21:11;97456.84;;;-6.68;100.00
73103;BME280;61294;65.988;29.172;2023-02-02T13:23:43;97461.81;;;-6.71;100.00
73103;BME280;61294;65.988;29.172;2023-02-02T13:26:17;97453.84;;;-6.77;100.00
73103;BME280;61294;65.988;29.172;2023-02-02T13:28:49;97449.56;;;-6.78;100.00
73103;BME280;61294;65.988;29.172;2023-02-02T13:31:34;97469.88;;;-6.81;100.00
73103;BME280;61294;65.988;29.172;2023-02-02T13:34:14;97475.91;;;-6.81;100.00
73103;BME280;61294;65.988;29.172;2023-02-02T13:36:47;97476.44;;;-6.88;100.00
73103;BME280;61294;65.988;29.172;2023-02-02T13:39:24;97438.28;;;-7.01;100.00
73103;BME280;61294;65.988;29.172;2023-02-02T13:41:54;97477.38;;;-6.86;100.00
73103;BME280;61294;65.988;29.172;2023-02-02T13:44:24;97478.94;;;-6.89;100.00
73103;BME280;61294;65.988;29.172;2023-02-02T13:47:08;97478.94;;;-6.89;100.00
73103;BME280;61294;65.988;29.172;2023-02-02T13:49:41;97475.28;;;-6.95;100.00
73103;BME280;61294;65.988;29.172;2023-02-02T13:58:03;97498.19;;;-6.98;100.00
73103;BME280;61294;65.988;29.172;2023-02-02T14:00:39;97496.38;;;-7.00;100.00
73103;BME280;61294;65.988;29.172;2023-02-02T14:08:44;97463.53;;;-7.29;100.00
73103;BME280;61294;65.988;29.172;2023-02-02T14:11:23;97487.78;;;-7.20;100.00
73103;BME280;61294;65.988;29.172;2023-02-02T14:13:57;97525.91;;;-7.07;100.00
73103;BME280;61294;65.988;29.172;2023-02-02T14:16:48;97502.09;;;-7.24;100.00
73103;BME280;61294;65.988;29.172;2023-02-02T14:24:40;97538.59;;;-7.10;100.00
73103;BME280;61294;65.988;29.172;2023-02-02T14:34:50;97553.06;;;-7.11;100.00
73103;BME280;61294;65.988;29.172;2023-02-02T14:45:43;97559.88;;;-7.11;100.00